sensor_id;sensor_type;location;lat;lon;timestamp;temperature;humidity
25192;DHT22;13143;50.924;5.320;2022-08-24T00:00:15;24.90;97.50
25192;DHT22;13143;50.924;5.320;2022-08-24T00:02:41;24.80;97.40
25192;DHT22;13143;50.924;5.320;2022-08-24T00:05:07;24.90;97.50
25192;DHT22;13143;50.924;5.320;2022-08-24T00:07:34;24.80;97.50
25192;DHT22;13143;50.924;5.320;2022-08-24T00:10:00;24.80;97.60
25192;DHT22;13143;50.924;5.320;2022-08-24T00:12:26;24.70;97.50
25192;DHT22;13143;50.924;5.320;2022-08-24T00:14:52;24.70;97.50
25192;DHT22;13143;50.924;5.320;2022-08-24T00:17:18;24.70;97.50
25192;DHT22;13143;50.924;5.320;2022-08-24T00:19:45;24.70;97.60
25192;DHT22;13143;50.924;5.320;2022-08-24T00:22:12;24.60;97.70
25192;DHT22;13143;50.924;5.320;2022-08-24T00:24:38;24.60;97.60
25192;DHT22;13143;50.924;5.320;2022-08-24T00:27:05;24.60;97.70
25192;DHT22;13143;50.924;5.320;2022-08-24T00:29:31;24.60;97.70
25192;DHT22;13143;50.924;5.320;2022-08-24T00:31:57;24.60;97.80
25192;DHT22;13143;50.924;5.320;2022-08-24T00:34:24;24.50;97.80
25192;DHT22;13143;50.924;5.320;2022-08-24T00:36:51;24.50;97.80
25192;DHT22;13143;50.924;5.320;2022-08-24T00:39:18;24.50;97.80
25192;DHT22;13143;50.924;5.320;2022-08-24T00:41:46;24.40;97.90
25192;DHT22;13143;50.924;5.320;2022-08-24T00:44:13;24.40;97.90
25192;DHT22;13143;50.924;5.320;2022-08-24T00:46:58;24.40;98.00
25192;DHT22;13143;50.924;5.320;2022-08-24T00:49:54;24.40;98.00
25192;DHT22;13143;50.924;5.320;2022-08-24T00:52:27;24.30;98.20
25192;DHT22;13143;50.924;5.320;2022-08-24T00:55:02;24.30;98.00
25192;DHT22;13143;50.924;5.320;2022-08-24T00:57:33;24.30;98.10
25192;DHT22;13143;50.924;5.320;2022-08-24T01:00:12;24.30;98.10
25192;DHT22;13143;50.924;5.320;2022-08-24T01:02:42;24.20;98.10
25192;DHT22;13143;50.924;5.320;2022-08-24T01:05:10;24.20;98.20
25192;DHT22;13143;50.924;5.320;2022-08-24T01:07:37;24.20;98.20
25192;DHT22;13143;50.924;5.320;2022-08-24T01:10:09;24.20;98.30
25192;DHT22;13143;50.924;5.320;2022-08-24T01:12:37;24.20;98.30
25192;DHT22;13143;50.924;5.320;2022-08-24T01:15:06;24.10;98.30
25192;DHT22;13143;50.924;5.320;2022-08-24T01:17:32;24.20;98.40
25192;DHT22;13143;50.924;5.320;2022-08-24T01:20:17;24.10;98.40
25192;DHT22;13143;50.924;5.320;2022-08-24T01:23:04;24.10;98.50
25192;DHT22;13143;50.924;5.320;2022-08-24T01:25:34;24.00;98.60
25192;DHT22;13143;50.924;5.320;2022-08-24T01:28:06;24.00;98.50
25192;DHT22;13143;50.924;5.320;2022-08-24T01:30:33;24.00;98.60
25192;DHT22;13143;50.924;5.320;2022-08-24T01:33:01;24.00;98.60
25192;DHT22;13143;50.924;5.320;2022-08-24T01:35:28;24.00;98.70
25192;DHT22;13143;50.924;5.320;2022-08-24T01:37:57;23.90;98.70
25192;DHT22;13143;50.924;5.320;2022-08-24T01:40:35;23.90;98.70
25192;DHT22;13143;50.924;5.320;2022-08-24T01:43:02;23.90;98.80
25192;DHT22;13143;50.924;5.320;2022-08-24T01:45:29;23.90;98.90
25192;DHT22;13143;50.924;5.320;2022-08-24T01:47:55;23.80;98.90
25192;DHT22;13143;50.924;5.320;2022-08-24T01:50:22;23.80;99.00
25192;DHT22;13143;50.924;5.320;2022-08-24T01:52:49;23.80;99.30
25192;DHT22;13143;50.924;5.320;2022-08-24T01:55:16;23.80;99.10
25192;DHT22;13143;50.924;5.320;2022-08-24T01:57:42;23.80;99.10
25192;DHT22;13143;50.924;5.320;2022-08-24T02:00:11;23.80;99.20
25192;DHT22;13143;50.924;5.320;2022-08-24T02:02:40;23.70;99.10
25192;DHT22;13143;50.924;5.320;2022-08-24T02:05:07;23.70;99.20
25192;DHT22;13143;50.924;5.320;2022-08-24T02:07:34;23.70;99.30
25192;DHT22;13143;50.924;5.320;2022-08-24T02:10:00;23.60;99.30
25192;DHT22;13143;50.924;5.320;2022-08-24T02:12:25;23.60;99.70
25192;DHT22;13143;50.924;5.320;2022-08-24T02:14:51;23.60;99.50
25192;DHT22;13143;50.924;5.320;2022-08-24T02:17:18;23.60;99.50
25192;DHT22;13143;50.924;5.320;2022-08-24T02:19:44;23.60;99.60
25192;DHT22;13143;50.924;5.320;2022-08-24T02:22:10;23.50;99.70
25192;DHT22;13143;50.924;5.320;2022-08-24T02:24:36;23.50;99.70
25192;DHT22;13143;50.924;5.320;2022-08-24T02:27:03;23.50;99.80
25192;DHT22;13143;50.924;5.320;2022-08-24T02:29:30;23.40;99.80
25192;DHT22;13143;50.924;5.320;2022-08-24T02:31:56;23.40;99.90
25192;DHT22;13143;50.924;5.320;2022-08-24T02:34:22;23.40;99.90
25192;DHT22;13143;50.924;5.320;2022-08-24T02:36:48;23.40;99.90
25192;DHT22;13143;50.924;5.320;2022-08-24T02:39:13;23.40;99.90
25192;DHT22;13143;50.924;5.320;2022-08-24T02:41:39;23.30;99.90
25192;DHT22;13143;50.924;5.320;2022-08-24T02:44:05;23.30;99.90
25192;DHT22;13143;50.924;5.320;2022-08-24T02:46:31;23.30;99.90
25192;DHT22;13143;50.924;5.320;2022-08-24T02:48:58;23.30;99.90
25192;DHT22;13143;50.924;5.320;2022-08-24T02:51:29;23.30;99.90
25192;DHT22;13143;50.924;5.320;2022-08-24T02:53:56;23.20;99.90
25192;DHT22;13143;50.924;5.320;2022-08-24T02:56:22;23.20;99.90
25192;DHT22;13143;50.924;5.320;2022-08-24T02:58:48;23.20;99.90
25192;DHT22;13143;50.924;5.320;2022-08-24T03:01:14;23.20;99.90
25192;DHT22;13143;50.924;5.320;2022-08-24T03:03:41;23.20;99.90
25192;DHT22;13143;50.924;5.320;2022-08-24T03:06:07;23.10;99.90
25192;DHT22;13143;50.924;5.320;2022-08-24T03:08:34;23.10;99.90
25192;DHT22;13143;50.924;5.320;2022-08-24T03:11:00;23.10;99.90
25192;DHT22;13143;50.924;5.320;2022-08-24T03:13:26;23.00;99.90
25192;DHT22;13143;50.924;5.320;2022-08-24T03:15:53;23.10;99.90
25192;DHT22;13143;50.924;5.320;2022-08-24T03:18:23;23.00;99.90
25192;DHT22;13143;50.924;5.320;2022-08-24T03:20:51;23.00;99.90
25192;DHT22;13143;50.924;5.320;2022-08-24T03:23:17;23.00;99.90
25192;DHT22;13143;50.924;5.320;2022-08-24T03:25:43;23.00;99.90
25192;DHT22;13143;50.924;5.320;2022-08-24T03:28:09;22.90;99.90
25192;DHT22;13143;50.924;5.320;2022-08-24T03:30:37;22.90;99.90
25192;DHT22;13143;50.924;5.320;2022-08-24T03:33:04;22.90;99.90
25192;DHT22;13143;50.924;5.320;2022-08-24T03:35:30;22.90;99.90
25192;DHT22;13143;50.924;5.320;2022-08-24T03:37:56;22.90;99.90
25192;DHT22;13143;50.924;5.320;2022-08-24T03:40:22;22.80;99.90
25192;DHT22;13143;50.924;5.320;2022-08-24T03:42:49;22.80;99.90
25192;DHT22;13143;50.924;5.320;2022-08-24T03:45:14;22.80;99.90
25192;DHT22;13143;50.924;5.320;2022-08-24T03:47:40;22.80;99.90
25192;DHT22;13143;50.924;5.320;2022-08-24T03:50:07;22.80;99.90
25192;DHT22;13143;50.924;5.320;2022-08-24T03:52:33;22.80;99.90
25192;DHT22;13143;50.924;5.320;2022-08-24T03:55:01;22.70;99.90
25192;DHT22;13143;50.924;5.320;2022-08-24T03:57:27;22.70;99.90
25192;DHT22;13143;50.924;5.320;2022-08-24T03:59:52;22.70;99.90
25192;DHT22;13143;50.924;5.320;2022-08-24T04:02:19;22.60;99.90
25192;DHT22;13143;50.924;5.320;2022-08-24T04:04:44;22.60;99.90
25192;DHT22;13143;50.924;5.320;2022-08-24T04:07:10;22.60;99.90
25192;DHT22;13143;50.924;5.320;2022-08-24T04:09:36;22.60;99.90
25192;DHT22;13143;50.924;5.320;2022-08-24T04:12:02;22.60;99.90
25192;DHT22;13143;50.924;5.320;2022-08-24T04:14:28;22.60;99.90
25192;DHT22;13143;50.924;5.320;2022-08-24T04:16:53;22.60;99.90
25192;DHT22;13143;50.924;5.320;2022-08-24T04:19:19;22.50;99.90
25192;DHT22;13143;50.924;5.320;2022-08-24T04:21:45;22.50;99.90
25192;DHT22;13143;50.924;5.320;2022-08-24T04:24:12;22.50;99.90
25192;DHT22;13143;50.924;5.320;2022-08-24T04:26:39;22.50;99.90
25192;DHT22;13143;50.924;5.320;2022-08-24T04:29:07;22.50;99.90
25192;DHT22;13143;50.924;5.320;2022-08-24T04:31:38;22.40;99.90
25192;DHT22;13143;50.924;5.320;2022-08-24T04:34:05;22.40;99.90
25192;DHT22;13143;50.924;5.320;2022-08-24T04:36:31;22.40;99.90
25192;DHT22;13143;50.924;5.320;2022-08-24T04:38:57;22.40;99.90
25192;DHT22;13143;50.924;5.320;2022-08-24T04:41:23;22.40;99.90
25192;DHT22;13143;50.924;5.320;2022-08-24T04:43:49;22.40;99.90
25192;DHT22;13143;50.924;5.320;2022-08-24T04:46:18;22.40;99.90
25192;DHT22;13143;50.924;5.320;2022-08-24T04:48:45;22.30;99.90
25192;DHT22;13143;50.924;5.320;2022-08-24T04:51:15;22.30;99.90
25192;DHT22;13143;50.924;5.320;2022-08-24T04:53:42;22.30;99.90
25192;DHT22;13143;50.924;5.320;2022-08-24T04:56:10;22.20;99.90
25192;DHT22;13143;50.924;5.320;2022-08-24T04:58:36;22.20;99.90
25192;DHT22;13143;50.924;5.320;2022-08-24T05:01:07;22.20;99.90
25192;DHT22;13143;50.924;5.320;2022-08-24T05:03:33;22.20;99.90
25192;DHT22;13143;50.924;5.320;2022-08-24T05:05:58;22.20;99.90
25192;DHT22;13143;50.924;5.320;2022-08-24T05:08:24;22.20;99.90
25192;DHT22;13143;50.924;5.320;2022-08-24T05:10:50;22.20;99.90
25192;DHT22;13143;50.924;5.320;2022-08-24T05:13:16;22.20;99.90
25192;DHT22;13143;50.924;5.320;2022-08-24T05:15:44;22.10;99.90
25192;DHT22;13143;50.924;5.320;2022-08-24T05:18:10;22.10;99.90
25192;DHT22;13143;50.924;5.320;2022-08-24T05:20:46;22.10;99.90
25192;DHT22;13143;50.924;5.320;2022-08-24T05:23:12;22.10;99.90
25192;DHT22;13143;50.924;5.320;2022-08-24T05:25:39;22.10;99.90
25192;DHT22;13143;50.924;5.320;2022-08-24T05:28:05;22.10;99.90
25192;DHT22;13143;50.924;5.320;2022-08-24T05:30:31;22.00;99.90
25192;DHT22;13143;50.924;5.320;2022-08-24T05:32:57;22.10;99.90
25192;DHT22;13143;50.924;5.320;2022-08-24T05:35:23;22.00;99.90
25192;DHT22;13143;50.924;5.320;2022-08-24T05:37:48;22.00;99.90
25192;DHT22;13143;50.924;5.320;2022-08-24T05:40:16;22.00;99.90
25192;DHT22;13143;50.924;5.320;2022-08-24T05:42:42;22.00;99.90
25192;DHT22;13143;50.924;5.320;2022-08-24T05:45:08;22.00;99.90
25192;DHT22;13143;50.924;5.320;2022-08-24T05:47:35;22.00;99.90
25192;DHT22;13143;50.924;5.320;2022-08-24T05:50:01;22.00;99.90
25192;DHT22;13143;50.924;5.320;2022-08-24T05:52:27;22.00;99.90
25192;DHT22;13143;50.924;5.320;2022-08-24T05:54:55;21.90;99.90
25192;DHT22;13143;50.924;5.320;2022-08-24T05:57:22;22.00;99.90
25192;DHT22;13143;50.924;5.320;2022-08-24T05:59:49;21.90;99.90
25192;DHT22;13143;50.924;5.320;2022-08-24T06:02:16;21.90;99.90
25192;DHT22;13143;50.924;5.320;2022-08-24T06:04:42;21.90;99.90
25192;DHT22;13143;50.924;5.320;2022-08-24T06:07:08;21.90;99.90
25192;DHT22;13143;50.924;5.320;2022-08-24T06:09:35;21.90;99.90
25192;DHT22;13143;50.924;5.320;2022-08-24T06:12:01;21.90;99.90
25192;DHT22;13143;50.924;5.320;2022-08-24T06:14:27;21.90;99.90
25192;DHT22;13143;50.924;5.320;2022-08-24T06:16:53;21.90;99.90
25192;DHT22;13143;50.924;5.320;2022-08-24T06:19:19;21.90;99.90
25192;DHT22;13143;50.924;5.320;2022-08-24T06:21:47;21.90;99.90
25192;DHT22;13143;50.924;5.320;2022-08-24T06:24:13;21.90;99.90
25192;DHT22;13143;50.924;5.320;2022-08-24T06:26:43;21.90;99.90
25192;DHT22;13143;50.924;5.320;2022-08-24T06:29:27;22.00;99.90
25192;DHT22;13143;50.924;5.320;2022-08-24T06:31:53;22.00;99.90
25192;DHT22;13143;50.924;5.320;2022-08-24T06:34:19;21.90;99.90
25192;DHT22;13143;50.924;5.320;2022-08-24T06:36:45;22.00;99.90
25192;DHT22;13143;50.924;5.320;2022-08-24T06:39:11;22.00;99.90
25192;DHT22;13143;50.924;5.320;2022-08-24T06:41:37;22.00;99.90
25192;DHT22;13143;50.924;5.320;2022-08-24T06:44:03;22.00;99.90
25192;DHT22;13143;50.924;5.320;2022-08-24T06:46:29;22.00;99.90
25192;DHT22;13143;50.924;5.320;2022-08-24T06:48:55;22.00;99.90
25192;DHT22;13143;50.924;5.320;2022-08-24T06:51:22;22.10;99.90
25192;DHT22;13143;50.924;5.320;2022-08-24T06:53:49;22.10;99.90
25192;DHT22;13143;50.924;5.320;2022-08-24T06:56:16;22.10;99.90
25192;DHT22;13143;50.924;5.320;2022-08-24T06:58:42;22.10;99.90
25192;DHT22;13143;50.924;5.320;2022-08-24T07:01:13;22.10;99.90
25192;DHT22;13143;50.924;5.320;2022-08-24T07:03:40;22.20;99.90
25192;DHT22;13143;50.924;5.320;2022-08-24T07:06:06;22.20;99.90
25192;DHT22;13143;50.924;5.320;2022-08-24T07:08:33;22.20;99.90
25192;DHT22;13143;50.924;5.320;2022-08-24T07:10:59;22.30;99.90
25192;DHT22;13143;50.924;5.320;2022-08-24T07:13:25;22.30;99.90
25192;DHT22;13143;50.924;5.320;2022-08-24T07:15:51;22.30;99.90
25192;DHT22;13143;50.924;5.320;2022-08-24T07:18:19;22.30;99.90
25192;DHT22;13143;50.924;5.320;2022-08-24T07:20:46;22.40;99.90
25192;DHT22;13143;50.924;5.320;2022-08-24T07:23:11;22.40;99.90
25192;DHT22;13143;50.924;5.320;2022-08-24T07:25:40;22.50;99.90
25192;DHT22;13143;50.924;5.320;2022-08-24T07:28:07;22.50;99.90
25192;DHT22;13143;50.924;5.320;2022-08-24T07:30:33;22.50;99.90
25192;DHT22;13143;50.924;5.320;2022-08-24T07:32:58;22.50;99.90
25192;DHT22;13143;50.924;5.320;2022-08-24T07:35:25;22.60;99.90
25192;DHT22;13143;50.924;5.320;2022-08-24T07:37:51;22.60;99.90
25192;DHT22;13143;50.924;5.320;2022-08-24T07:40:17;22.60;99.90
25192;DHT22;13143;50.924;5.320;2022-08-24T07:42:48;22.70;99.90
25192;DHT22;13143;50.924;5.320;2022-08-24T07:45:14;22.70;99.90
25192;DHT22;13143;50.924;5.320;2022-08-24T07:47:40;22.80;99.90
25192;DHT22;13143;50.924;5.320;2022-08-24T07:50:07;22.80;99.90
25192;DHT22;13143;50.924;5.320;2022-08-24T07:52:33;22.80;99.90
25192;DHT22;13143;50.924;5.320;2022-08-24T07:54:58;22.90;99.90
25192;DHT22;13143;50.924;5.320;2022-08-24T07:57:24;22.90;99.90
25192;DHT22;13143;50.924;5.320;2022-08-24T07:59:50;23.00;99.90
25192;DHT22;13143;50.924;5.320;2022-08-24T08:02:16;23.00;99.90
25192;DHT22;13143;50.924;5.320;2022-08-24T08:04:42;23.00;99.90
25192;DHT22;13143;50.924;5.320;2022-08-24T08:07:08;23.10;99.90
25192;DHT22;13143;50.924;5.320;2022-08-24T08:09:38;23.10;99.90
25192;DHT22;13143;50.924;5.320;2022-08-24T08:12:04;23.20;99.90
25192;DHT22;13143;50.924;5.320;2022-08-24T08:14:31;23.20;99.90
25192;DHT22;13143;50.924;5.320;2022-08-24T08:16:56;23.30;99.90
25192;DHT22;13143;50.924;5.320;2022-08-24T08:19:23;23.30;99.90
25192;DHT22;13143;50.924;5.320;2022-08-24T08:21:51;23.40;99.90
25192;DHT22;13143;50.924;5.320;2022-08-24T08:24:40;23.40;99.90
25192;DHT22;13143;50.924;5.320;2022-08-24T08:27:09;23.50;99.90
25192;DHT22;13143;50.924;5.320;2022-08-24T08:29:37;23.50;99.90
25192;DHT22;13143;50.924;5.320;2022-08-24T08:32:07;23.60;99.90
25192;DHT22;13143;50.924;5.320;2022-08-24T08:34:33;23.60;99.90
25192;DHT22;13143;50.924;5.320;2022-08-24T08:36:59;23.70;99.90
25192;DHT22;13143;50.924;5.320;2022-08-24T08:39:26;23.80;99.90
25192;DHT22;13143;50.924;5.320;2022-08-24T08:53:09;24.10;99.90
25192;DHT22;13143;50.924;5.320;2022-08-24T08:55:46;24.20;99.90
25192;DHT22;13143;50.924;5.320;2022-08-24T09:00:59;24.30;99.90
25192;DHT22;13143;50.924;5.320;2022-08-24T09:04:09;24.40;99.90
25192;DHT22;13143;50.924;5.320;2022-08-24T09:07:19;24.40;99.90
25192;DHT22;13143;50.924;5.320;2022-08-24T09:24:19;24.80;99.90
25192;DHT22;13143;50.924;5.320;2022-08-24T09:40:48;25.10;99.90
25192;DHT22;13143;50.924;5.320;2022-08-24T09:57:33;25.40;99.90
25192;DHT22;13143;50.924;5.320;2022-08-24T10:12:01;25.60;99.90
25192;DHT22;13143;50.924;5.320;2022-08-24T10:17:16;25.70;99.90
25192;DHT22;13143;50.924;5.320;2022-08-24T10:20:04;25.70;99.90
25192;DHT22;13143;50.924;5.320;2022-08-24T10:31:10;25.90;99.90
25192;DHT22;13143;50.924;5.320;2022-08-24T10:40:03;26.00;99.90
25192;DHT22;13143;50.924;5.320;2022-08-24T10:45:52;26.10;99.90
25192;DHT22;13143;50.924;5.320;2022-08-24T10:51:22;26.20;99.90
25192;DHT22;13143;50.924;5.320;2022-08-24T10:53:54;26.20;99.90
25192;DHT22;13143;50.924;5.320;2022-08-24T10:59:28;26.30;99.90
25192;DHT22;13143;50.924;5.320;2022-08-24T11:02:03;26.40;99.90
25192;DHT22;13143;50.924;5.320;2022-08-24T11:04:31;26.40;99.90
25192;DHT22;13143;50.924;5.320;2022-08-24T11:07:14;26.50;99.90
25192;DHT22;13143;50.924;5.320;2022-08-24T11:09:49;26.50;99.90
25192;DHT22;13143;50.924;5.320;2022-08-24T11:12:21;26.60;99.80
25192;DHT22;13143;50.924;5.320;2022-08-24T11:14:49;26.60;99.90
25192;DHT22;13143;50.924;5.320;2022-08-24T11:17:20;26.70;99.50
25192;DHT22;13143;50.924;5.320;2022-08-24T11:19:47;26.70;99.10
25192;DHT22;13143;50.924;5.320;2022-08-24T11:22:33;26.80;99.20
25192;DHT22;13143;50.924;5.320;2022-08-24T11:25:14;26.80;98.90
25192;DHT22;13143;50.924;5.320;2022-08-24T11:27:45;26.80;98.40
25192;DHT22;13143;50.924;5.320;2022-08-24T11:30:23;26.90;98.80
25192;DHT22;13143;50.924;5.320;2022-08-24T11:32:58;27.00;97.70
25192;DHT22;13143;50.924;5.320;2022-08-24T11:40:49;27.10;97.90
25192;DHT22;13143;50.924;5.320;2022-08-24T11:43:24;27.20;97.70
25192;DHT22;13143;50.924;5.320;2022-08-24T11:54:21;27.30;97.20
25192;DHT22;13143;50.924;5.320;2022-08-24T11:57:15;27.40;97.20
25192;DHT22;13143;50.924;5.320;2022-08-24T11:59:48;27.40;96.40
25192;DHT22;13143;50.924;5.320;2022-08-24T12:08:09;27.50;96.00
25192;DHT22;13143;50.924;5.320;2022-08-24T12:10:49;27.60;95.90
25192;DHT22;13143;50.924;5.320;2022-08-24T12:21:13;27.80;95.50
25192;DHT22;13143;50.924;5.320;2022-08-24T12:23:43;27.80;95.60
25192;DHT22;13143;50.924;5.320;2022-08-24T12:26:23;27.80;95.40
25192;DHT22;13143;50.924;5.320;2022-08-24T12:37:51;28.00;95.00
25192;DHT22;13143;50.924;5.320;2022-08-24T12:43:02;28.00;94.90
25192;DHT22;13143;50.924;5.320;2022-08-24T12:45:29;28.10;94.50
25192;DHT22;13143;50.924;5.320;2022-08-24T12:48:22;28.10;93.90
25192;DHT22;13143;50.924;5.320;2022-08-24T12:53:56;28.10;94.10
25192;DHT22;13143;50.924;5.320;2022-08-24T13:02:06;28.30;93.40
25192;DHT22;13143;50.924;5.320;2022-08-24T13:04:34;28.30;93.60
25192;DHT22;13143;50.924;5.320;2022-08-24T13:09:46;28.40;92.90
25192;DHT22;13143;50.924;5.320;2022-08-24T13:23:14;28.60;93.10
25192;DHT22;13143;50.924;5.320;2022-08-24T13:28:43;28.60;93.20
25192;DHT22;13143;50.924;5.320;2022-08-24T13:31:26;28.70;93.20
25192;DHT22;13143;50.924;5.320;2022-08-24T13:34:34;28.70;93.00
25192;DHT22;13143;50.924;5.320;2022-08-24T13:51:04;28.80;92.70
25192;DHT22;13143;50.924;5.320;2022-08-24T13:53:56;28.90;92.50
25192;DHT22;13143;50.924;5.320;2022-08-24T13:56:35;28.90;92.10
25192;DHT22;13143;50.924;5.320;2022-08-24T14:04:58;29.00;91.80
25192;DHT22;13143;50.924;5.320;2022-08-24T14:07:30;29.00;91.70
25192;DHT22;13143;50.924;5.320;2022-08-24T14:10:13;29.00;91.60
25192;DHT22;13143;50.924;5.320;2022-08-24T14:13:33;29.10;91.20
25192;DHT22;13143;50.924;5.320;2022-08-24T14:19:15;29.10;91.40
25192;DHT22;13143;50.924;5.320;2022-08-24T14:21:53;29.10;91.10
25192;DHT22;13143;50.924;5.320;2022-08-24T14:24:30;29.10;91.10
25192;DHT22;13143;50.924;5.320;2022-08-24T14:27:03;29.20;90.90
25192;DHT22;13143;50.924;5.320;2022-08-24T14:29:36;29.20;90.60
25192;DHT22;13143;50.924;5.320;2022-08-24T14:34:52;29.20;90.30
25192;DHT22;13143;50.924;5.320;2022-08-24T14:37:23;29.30;90.60
25192;DHT22;13143;50.924;5.320;2022-08-24T14:45:25;29.40;90.50
25192;DHT22;13143;50.924;5.320;2022-08-24T14:48:30;29.30;90.40
25192;DHT22;13143;50.924;5.320;2022-08-24T15:05:35;29.50;90.20
25192;DHT22;13143;50.924;5.320;2022-08-24T15:08:06;29.50;89.80
25192;DHT22;13143;50.924;5.320;2022-08-24T15:15:54;29.60;88.10
25192;DHT22;13143;50.924;5.320;2022-08-24T15:21:26;29.70;88.20
25192;DHT22;13143;50.924;5.320;2022-08-24T15:29:30;29.80;87.90
25192;DHT22;13143;50.924;5.320;2022-08-24T15:34:33;29.90;87.80
25192;DHT22;13143;50.924;5.320;2022-08-24T15:37:00;29.90;87.60
25192;DHT22;13143;50.924;5.320;2022-08-24T15:39:27;29.90;87.30
25192;DHT22;13143;50.924;5.320;2022-08-24T15:41:53;30.00;87.20
25192;DHT22;13143;50.924;5.320;2022-08-24T15:44:23;30.00;85.90
25192;DHT22;13143;50.924;5.320;2022-08-24T15:46:56;30.10;86.40
25192;DHT22;13143;50.924;5.320;2022-08-24T15:49:33;30.00;86.40
25192;DHT22;13143;50.924;5.320;2022-08-24T15:52:06;30.10;85.80
25192;DHT22;13143;50.924;5.320;2022-08-24T15:54:44;30.10;85.60
25192;DHT22;13143;50.924;5.320;2022-08-24T15:59:51;30.20;86.00
25192;DHT22;13143;50.924;5.320;2022-08-24T16:05:16;30.20;85.20
25192;DHT22;13143;50.924;5.320;2022-08-24T16:16:11;30.30;83.50
25192;DHT22;13143;50.924;5.320;2022-08-24T16:18:53;30.30;83.90
25192;DHT22;13143;50.924;5.320;2022-08-24T16:21:42;30.30;83.90
25192;DHT22;13143;50.924;5.320;2022-08-24T16:32:25;30.40;84.10
25192;DHT22;13143;50.924;5.320;2022-08-24T16:37:27;30.40;82.70
25192;DHT22;13143;50.924;5.320;2022-08-24T16:39:53;30.40;82.80
25192;DHT22;13143;50.924;5.320;2022-08-24T16:42:24;30.40;82.40
25192;DHT22;13143;50.924;5.320;2022-08-24T16:44:50;30.40;82.20
25192;DHT22;13143;50.924;5.320;2022-08-24T16:47:16;30.40;82.40
25192;DHT22;13143;50.924;5.320;2022-08-24T16:49:42;30.50;82.90
25192;DHT22;13143;50.924;5.320;2022-08-24T16:52:08;30.50;83.00
25192;DHT22;13143;50.924;5.320;2022-08-24T16:54:34;30.50;81.90
25192;DHT22;13143;50.924;5.320;2022-08-24T16:57:07;30.50;81.00
25192;DHT22;13143;50.924;5.320;2022-08-24T16:59:34;30.50;81.50
25192;DHT22;13143;50.924;5.320;2022-08-24T17:02:00;30.50;81.80
25192;DHT22;13143;50.924;5.320;2022-08-24T17:04:26;30.50;82.30
25192;DHT22;13143;50.924;5.320;2022-08-24T17:06:52;30.50;82.90
25192;DHT22;13143;50.924;5.320;2022-08-24T17:09:20;30.40;82.60
25192;DHT22;13143;50.924;5.320;2022-08-24T17:11:46;30.40;82.50
25192;DHT22;13143;50.924;5.320;2022-08-24T17:14:12;30.40;82.40
25192;DHT22;13143;50.924;5.320;2022-08-24T17:16:38;30.40;82.40
25192;DHT22;13143;50.924;5.320;2022-08-24T17:19:08;30.50;82.70
25192;DHT22;13143;50.924;5.320;2022-08-24T17:21:37;30.40;82.60
25192;DHT22;13143;50.924;5.320;2022-08-24T17:24:04;30.40;81.60
25192;DHT22;13143;50.924;5.320;2022-08-24T17:26:31;30.40;81.60
25192;DHT22;13143;50.924;5.320;2022-08-24T17:28:57;30.40;81.90
25192;DHT22;13143;50.924;5.320;2022-08-24T17:31:23;30.40;81.50
25192;DHT22;13143;50.924;5.320;2022-08-24T17:33:50;30.40;81.90
25192;DHT22;13143;50.924;5.320;2022-08-24T17:36:19;30.40;81.90
25192;DHT22;13143;50.924;5.320;2022-08-24T17:38:47;30.40;82.00
25192;DHT22;13143;50.924;5.320;2022-08-24T17:41:14;30.40;82.10
25192;DHT22;13143;50.924;5.320;2022-08-24T17:43:40;30.40;81.60
25192;DHT22;13143;50.924;5.320;2022-08-24T17:46:09;30.30;81.60
25192;DHT22;13143;50.924;5.320;2022-08-24T17:48:35;30.30;81.40
25192;DHT22;13143;50.924;5.320;2022-08-24T17:51:01;30.30;81.60
25192;DHT22;13143;50.924;5.320;2022-08-24T17:53:27;30.30;81.30
25192;DHT22;13143;50.924;5.320;2022-08-24T17:55:53;30.30;81.30
25192;DHT22;13143;50.924;5.320;2022-08-24T17:58:18;30.30;81.40
25192;DHT22;13143;50.924;5.320;2022-08-24T18:00:44;30.30;81.40
25192;DHT22;13143;50.924;5.320;2022-08-24T18:03:10;30.30;81.50
25192;DHT22;13143;50.924;5.320;2022-08-24T18:05:37;30.30;81.00
25192;DHT22;13143;50.924;5.320;2022-08-24T18:08:03;30.30;80.20
25192;DHT22;13143;50.924;5.320;2022-08-24T18:10:30;30.30;80.20
25192;DHT22;13143;50.924;5.320;2022-08-24T18:13:00;30.30;80.20
25192;DHT22;13143;50.924;5.320;2022-08-24T18:15:27;30.30;80.10
25192;DHT22;13143;50.924;5.320;2022-08-24T18:17:55;30.20;79.70
25192;DHT22;13143;50.924;5.320;2022-08-24T18:20:25;30.20;80.10
25192;DHT22;13143;50.924;5.320;2022-08-24T18:22:52;30.20;79.80
25192;DHT22;13143;50.924;5.320;2022-08-24T18:25:18;30.20;80.20
25192;DHT22;13143;50.924;5.320;2022-08-24T18:27:46;30.20;80.30
25192;DHT22;13143;50.924;5.320;2022-08-24T18:30:21;30.20;80.90
25192;DHT22;13143;50.924;5.320;2022-08-24T18:32:47;30.20;80.60
25192;DHT22;13143;50.924;5.320;2022-08-24T18:35:13;30.20;80.60
25192;DHT22;13143;50.924;5.320;2022-08-24T18:37:39;30.20;81.30
25192;DHT22;13143;50.924;5.320;2022-08-24T18:40:05;30.10;81.10
25192;DHT22;13143;50.924;5.320;2022-08-24T18:42:31;30.10;80.70
25192;DHT22;13143;50.924;5.320;2022-08-24T18:44:57;30.10;81.10
25192;DHT22;13143;50.924;5.320;2022-08-24T18:47:25;30.10;81.60
25192;DHT22;13143;50.924;5.320;2022-08-24T18:49:51;30.10;81.90
25192;DHT22;13143;50.924;5.320;2022-08-24T18:52:16;30.10;81.50
25192;DHT22;13143;50.924;5.320;2022-08-24T18:54:45;30.00;81.20
25192;DHT22;13143;50.924;5.320;2022-08-24T18:57:11;30.00;81.50
25192;DHT22;13143;50.924;5.320;2022-08-24T18:59:38;30.00;81.70
25192;DHT22;13143;50.924;5.320;2022-08-24T19:02:15;30.00;82.20
25192;DHT22;13143;50.924;5.320;2022-08-24T19:07:45;29.90;82.70
25192;DHT22;13143;50.924;5.320;2022-08-24T19:10:15;29.80;82.90
25192;DHT22;13143;50.924;5.320;2022-08-24T19:12:44;29.80;83.20
25192;DHT22;13143;50.924;5.320;2022-08-24T19:15:11;29.80;83.40
25192;DHT22;13143;50.924;5.320;2022-08-24T19:17:37;29.80;83.20
25192;DHT22;13143;50.924;5.320;2022-08-24T19:20:04;29.70;82.70
25192;DHT22;13143;50.924;5.320;2022-08-24T19:22:31;29.70;82.70
25192;DHT22;13143;50.924;5.320;2022-08-24T19:24:56;29.70;83.60
25192;DHT22;13143;50.924;5.320;2022-08-24T19:27:23;29.70;83.20
25192;DHT22;13143;50.924;5.320;2022-08-24T19:29:49;29.60;82.90
25192;DHT22;13143;50.924;5.320;2022-08-24T19:32:19;29.60;82.60
25192;DHT22;13143;50.924;5.320;2022-08-24T19:34:46;29.60;82.90
25192;DHT22;13143;50.924;5.320;2022-08-24T19:37:12;29.50;82.50
25192;DHT22;13143;50.924;5.320;2022-08-24T19:39:39;29.50;82.50
25192;DHT22;13143;50.924;5.320;2022-08-24T19:42:04;29.50;82.70
25192;DHT22;13143;50.924;5.320;2022-08-24T19:44:31;29.40;82.40
25192;DHT22;13143;50.924;5.320;2022-08-24T19:47:15;29.40;82.80
25192;DHT22;13143;50.924;5.320;2022-08-24T19:49:41;29.40;82.90
25192;DHT22;13143;50.924;5.320;2022-08-24T19:52:08;29.30;82.90